createdAt,value
2023-02-12T00:01:40.551Z,103785.34
2023-02-12T00:04:10.256Z,103790.72
2023-02-12T00:06:40.375Z,103792.63
2023-02-12T00:09:08.699Z,103793.44
2023-02-12T00:11:38.262Z,103790.72
2023-02-12T00:14:06.570Z,103796.13
2023-02-12T00:16:34.865Z,103800.94
2023-02-12T00:19:03.184Z,103801.53
2023-02-12T00:21:32.891Z,103802.06
2023-02-12T00:24:01.223Z,103800.97
2023-02-12T00:26:29.758Z,103796.38
2023-02-12T00:28:58.282Z,103795.56
2023-02-12T00:31:29.312Z,103798.25
2023-02-12T00:33:58.366Z,103796.66
2023-02-12T00:36:30.556Z,103801.53
2023-02-12T00:39:00.870Z,103795.56
2023-02-12T00:41:29.866Z,103801.53
2023-02-12T00:43:58.244Z,103801.53
2023-02-12T00:46:26.667Z,103797.75
2023-02-12T00:48:55.000Z,103798.81
2023-02-12T00:51:23.365Z,103793.44
2023-02-12T00:53:51.690Z,103798.81
2023-02-12T00:56:21.354Z,103797.75
2023-02-12T00:58:49.733Z,103798.81
2023-02-12T01:01:18.880Z,103795.56
2023-02-12T01:03:47.292Z,103793.94
2023-02-12T01:06:15.669Z,103801.22
2023-02-12T01:08:44.039Z,103797.19
2023-02-12T01:11:14.870Z,103789.09
2023-02-12T01:13:44.601Z,103792.63
2023-02-12T01:16:17.850Z,103793.94
2023-02-12T01:18:47.078Z,103796.63
2023-02-12T01:21:19.168Z,103788.53
2023-02-12T01:23:49.205Z,103776.66
2023-02-12T01:26:19.768Z,103779.34
2023-02-12T01:28:54.840Z,103779.34
2023-02-12T01:31:26.112Z,103787.44
2023-02-12T01:33:56.771Z,103788.25
2023-02-12T01:36:25.934Z,103788.78
2023-02-12T01:38:54.313Z,103786.03
2023-02-12T01:41:25.042Z,103781.19
2023-02-12T01:44:21.220Z,103776.88
2023-02-12T01:46:52.009Z,103774.69
2023-02-12T01:49:25.501Z,103780.88
2023-02-12T01:51:59.267Z,103777.13
2023-02-12T01:54:28.399Z,103775.50
2023-02-12T01:56:57.050Z,103780.66
2023-02-12T01:59:27.166Z,103784.16
2023-02-12T02:01:56.806Z,103774.69
2023-02-12T02:04:30.595Z,103775.75
2023-02-12T02:07:01.204Z,103772.25
2023-02-12T02:09:31.561Z,103769.56
2023-02-12T02:12:17.616Z,103761.47
2023-02-12T02:14:49.919Z,103759.56
2023-02-12T02:17:43.686Z,103763.88
2023-02-12T02:20:52.051Z,103767.66
2023-02-12T02:24:06.348Z,103757.66
2023-02-12T02:27:10.164Z,103755.19
2023-02-12T02:30:14.541Z,103764.34
2023-02-12T02:32:52.404Z,103772.69
2023-02-12T02:35:29.540Z,103770.53
2023-02-12T02:38:09.910Z,103766.75
2023-02-12T02:40:47.310Z,103750.84
2023-02-12T02:43:21.609Z,103755.66
2023-02-12T02:45:53.938Z,103752.13
2023-02-12T02:48:28.798Z,103752.44
2023-02-12T02:51:03.049Z,103750.53
2023-02-12T02:53:35.367Z,103752.44
2023-02-12T02:56:08.572Z,103761.84
2023-02-12T02:58:41.193Z,103748.91
2023-02-12T03:01:15.763Z,103761.34
2023-02-12T03:03:50.869Z,103749.69
2023-02-12T03:06:28.229Z,103747.53
2023-02-12T03:09:01.428Z,103754.25
2023-02-12T03:11:33.632Z,103761.28
2023-02-12T03:14:09.016Z,103750.22
2023-02-12T03:16:44.023Z,103758.03
2023-02-12T03:19:20.504Z,103761.25
2023-02-12T03:21:55.595Z,103749.41
2023-02-12T03:24:30.313Z,103752.91
2023-02-12T03:27:05.629Z,103754.53
2023-02-12T03:29:34.220Z,103754.53
2023-02-12T03:32:22.021Z,103748.06
2023-02-12T03:34:57.121Z,103743.47
2023-02-12T03:37:32.862Z,103748.06
2023-02-12T03:40:15.037Z,103741.31
2023-02-12T03:42:53.731Z,103745.06
2023-02-12T03:45:39.609Z,103749.38
2023-02-12T03:48:12.990Z,103749.06
2023-02-12T03:50:53.723Z,103743.41
2023-02-12T03:53:22.461Z,103744.75
2023-02-12T03:55:57.716Z,103743.94
2023-02-12T03:58:30.868Z,103748.22
2023-02-12T04:00:59.583Z,103747.66
2023-02-12T04:03:28.810Z,103758.78
2023-02-12T04:05:58.547Z,103758.47
2023-02-12T04:08:28.630Z,103753.63
2023-02-12T04:11:08.962Z,103756.84
2023-02-12T04:13:55.601Z,103763.28
2023-02-12T04:16:31.845Z,103754.69
2023-02-12T04:19:00.659Z,103759.81
2023-02-12T04:21:58.684Z,103759.00
2023-02-12T04:24:36.685Z,103764.41
2023-02-12T04:27:13.958Z,103766.53
2023-02-12T04:29:51.859Z,103771.69
2023-02-12T04:32:26.631Z,103771.41
2023-02-12T04:35:02.523Z,103766.03
2023-02-12T04:37:38.355Z,103774.09
2023-02-12T04:40:11.274Z,103782.47
2023-02-12T04:42:44.279Z,103792.97
2023-02-12T04:45:14.019Z,103787.59
2023-02-12T04:47:42.368Z,103776.56
2023-02-12T04:50:11.914Z,103780.88
2023-02-12T04:52:41.641Z,103787.06
2023-02-12T04:55:10.170Z,103782.75
2023-02-12T04:57:38.453Z,103786.25
2023-02-12T05:00:09.130Z,103788.94
2023-02-12T05:02:37.447Z,103789.75
2023-02-12T05:05:06.405Z,103788.19
2023-02-12T05:07:34.728Z,103780.66
2023-02-12T05:10:04.996Z,103784.44
2023-02-12T05:12:33.316Z,103792.78
2023-02-12T05:15:01.720Z,103797.09
2023-02-12T05:17:30.077Z,103789.25
2023-02-12T05:19:58.428Z,103789.25
2023-02-12T05:22:26.833Z,103793.00
2023-02-12T05:24:55.256Z,103800.88
2023-02-12T05:27:24.900Z,103804.38
2023-02-12T05:29:53.305Z,103799.47
2023-02-12T05:32:21.636Z,103795.72
2023-02-12T05:34:50.060Z,103800.59
2023-02-12T05:37:18.378Z,103802.50
2023-02-12T05:39:46.691Z,103807.63
2023-02-12T05:42:14.995Z,103800.34
2023-02-12T05:44:44.816Z,103798.47
2023-02-12T05:47:13.168Z,103802.50
2023-02-12T05:49:42.852Z,103806.59
2023-02-12T05:52:11.300Z,103810.91
2023-02-12T05:54:39.652Z,103805.47
2023-02-12T05:57:08.825Z,103814.91
2023-02-12T05:59:37.396Z,103813.84
2023-02-12T06:02:07.012Z,103803.03
2023-02-12T06:04:35.337Z,103806.28
2023-02-12T06:07:03.700Z,103816.53
2023-02-12T06:09:32.183Z,103818.69
2023-02-12T06:12:00.560Z,103813.50
2023-02-12T06:14:31.547Z,103809.78
2023-02-12T06:17:00.267Z,103816.22
2023-02-12T06:19:29.887Z,103818.34
2023-02-12T06:21:58.182Z,103813.50
2023-02-12T06:24:26.830Z,103821.84
2023-02-12T06:26:55.239Z,103813.75
2023-02-12T06:29:23.988Z,103814.81
2023-02-12T06:31:52.527Z,103812.94
2023-02-12T06:34:21.062Z,103805.91
2023-02-12T06:36:50.762Z,103809.94
2023-02-12T06:39:19.551Z,103815.59
2023-02-12T06:41:47.875Z,103822.28
2023-02-12T06:44:16.298Z,103817.19
2023-02-12T06:46:44.734Z,103822.59
2023-02-12T06:49:14.505Z,103830.13
2023-02-12T06:51:43.330Z,103827.19
2023-02-12T06:54:18.180Z,103823.91
2023-02-12T06:56:46.770Z,103828.50
2023-02-12T06:59:17.754Z,103822.84
2023-02-12T07:01:46.799Z,103830.06
2023-02-12T07:04:15.698Z,103836.75
2023-02-12T07:06:44.101Z,103836.50
2023-02-12T07:09:12.510Z,103842.47
2023-02-12T07:11:42.291Z,103841.94
2023-02-12T07:14:15.942Z,103844.09
2023-02-12T07:16:44.775Z,103839.50
2023-02-12T07:19:15.147Z,103838.44
2023-02-12T07:21:43.601Z,103838.69
2023-02-12T07:24:13.082Z,103843.81
2023-02-12T07:26:43.469Z,103839.75
2023-02-12T07:29:12.789Z,103836.50
2023-02-12T07:31:42.933Z,103841.94
2023-02-12T07:34:12.559Z,103839.81
2023-02-12T07:36:40.899Z,103841.16
2023-02-12T07:39:09.372Z,103844.19
2023-02-12T07:41:38.146Z,103844.72
2023-02-12T07:44:12.855Z,103843.16
2023-02-12T07:46:45.664Z,103858.25
2023-02-12T07:49:18.234Z,103844.25
2023-02-12T07:51:47.640Z,103848.34
2023-02-12T07:54:16.836Z,103845.38
2023-02-12T07:56:47.650Z,103843.78
2023-02-12T07:59:19.283Z,103845.97
2023-02-12T08:01:49.508Z,103855.69
2023-02-12T08:04:21.411Z,103858.38
2023-02-12T08:06:53.599Z,103860.00
2023-02-12T08:09:25.624Z,103853.81
2023-02-12T08:11:54.660Z,103866.56
2023-02-12T08:14:24.697Z,103858.19
2023-02-12T08:16:53.507Z,103868.25
2023-02-12T08:19:26.129Z,103870.97
2023-02-12T08:21:56.879Z,103872.06
2023-02-12T08:24:25.909Z,103873.44
2023-02-12T08:26:54.461Z,103877.22
2023-02-12T08:29:26.971Z,103876.47
2023-02-12T08:31:58.913Z,103880.25
2023-02-12T08:34:29.814Z,103883.50
2023-02-12T08:36:59.018Z,103883.00
2023-02-12T08:39:30.792Z,103876.25
2023-02-12T08:42:00.758Z,103876.53
2023-02-12T08:44:31.024Z,103884.41
2023-02-12T08:46:59.534Z,103890.88
2023-02-12T08:49:30.247Z,103886.03
2023-02-12T08:52:01.936Z,103893.34
2023-02-12T08:54:32.787Z,103888.53
2023-02-12T08:57:04.243Z,103884.47
2023-02-12T08:59:33.934Z,103892.88
2023-02-12T09:02:04.147Z,103897.75
2023-02-12T09:04:32.745Z,103882.34
2023-02-12T09:07:01.180Z,103888.28
2023-02-12T09:09:29.603Z,103894.53
2023-02-12T09:11:57.967Z,103889.13
2023-02-12T09:14:26.371Z,103882.97
2023-02-12T09:16:58.276Z,103887.81
2023-02-12T09:19:27.116Z,103895.97
2023-02-12T09:21:57.239Z,103904.88
2023-02-12T09:24:27.755Z,103897.03
2023-02-12T09:26:57.031Z,103902.72
2023-02-12T09:29:25.438Z,103911.41
2023-02-12T09:31:55.350Z,103898.44
2023-02-12T09:34:23.810Z,103899.53
2023-02-12T09:36:52.121Z,103902.78
2023-02-12T09:39:20.478Z,103906.03
2023-02-12T09:42:22.734Z,103905.75
2023-02-12T09:45:01.486Z,103904.41
2023-02-12T09:47:39.536Z,103902.50
2023-02-12T09:50:28.847Z,103910.34
2023-02-12T09:52:59.284Z,103915.25
2023-02-12T09:55:32.360Z,103920.91
2023-02-12T09:58:02.556Z,103921.22
2023-02-12T10:00:32.863Z,103922.28
2023-02-12T10:03:06.007Z,103908.25
2023-02-12T10:05:40.002Z,103913.91
2023-02-12T10:08:44.622Z,103920.72
2023-02-12T10:11:46.353Z,103922.03
2023-02-12T10:14:42.256Z,103914.50
2023-02-12T10:17:21.302Z,103912.88
2023-02-12T10:20:34.690Z,103919.63
2023-02-12T10:23:21.628Z,103923.16
2023-02-12T10:25:54.333Z,103918.00
2023-02-12T10:28:28.124Z,103926.94
2023-02-12T10:31:00.764Z,103919.94
2023-02-12T10:33:34.585Z,103920.16
2023-02-12T10:36:20.355Z,103919.38
2023-02-12T10:38:54.553Z,103921.56
2023-02-12T10:41:24.992Z,103919.66
2023-02-12T10:43:54.066Z,103910.47
2023-02-12T10:46:22.407Z,103915.31
2023-02-12T10:48:55.222Z,103913.44
2023-02-12T10:51:50.164Z,103899.09
2023-02-12T10:54:40.259Z,103899.38
2023-02-12T10:57:16.357Z,103911.25
2023-02-12T10:59:46.078Z,103909.94
2023-02-12T11:02:33.823Z,103898.28
2023-02-12T11:05:25.502Z,103909.09
2023-02-12T11:07:54.071Z,103913.16
2023-02-12T11:10:29.026Z,103909.88
2023-02-12T11:12:58.365Z,103903.41
2023-02-12T11:15:36.588Z,103902.03
2023-02-12T11:18:07.582Z,103898.53
2023-02-12T11:20:41.290Z,103895.56
2023-02-12T11:23:29.863Z,103901.19
2023-02-12T11:26:02.358Z,103892.56
2023-02-12T11:28:32.580Z,103893.09
2023-02-12T11:31:03.367Z,103889.31
2023-02-12T11:33:35.428Z,103890.94
2023-02-12T11:36:16.072Z,103887.94
2023-02-12T11:38:54.459Z,103890.38
2023-02-12T11:41:30.842Z,103885.78
2023-02-12T11:43:59.859Z,103880.09
2023-02-12T11:46:29.756Z,103874.69
2023-02-12T11:49:00.822Z,103876.84
2023-02-12T11:51:31.627Z,103869.53
2023-02-12T11:54:06.259Z,103873.59
2023-02-12T11:56:47.313Z,103870.88
2023-02-12T11:59:34.682Z,103861.66
2023-02-12T12:02:18.208Z,103859.50
2023-02-12T12:04:49.442Z,103858.44
2023-02-12T12:07:23.234Z,103859.78
2023-02-12T12:10:00.223Z,103858.97
2023-02-12T12:12:39.118Z,103860.03
2023-02-12T12:15:31.331Z,103853.25
2023-02-12T12:18:24.881Z,103849.44
2023-02-12T12:20:58.228Z,103847.03
2023-02-12T12:23:37.711Z,103850.25
2023-02-12T12:26:12.354Z,103842.13
2023-02-12T12:28:47.136Z,103848.06
2023-02-12T12:31:18.811Z,103840.25
2023-02-12T12:33:51.292Z,103840.25
2023-02-12T12:37:16.675Z,103833.44
2023-02-12T12:40:15.845Z,103830.19
2023-02-12T12:43:15.082Z,103829.09
2023-02-12T12:46:31.740Z,103821.53
2023-02-12T12:49:30.585Z,103821.25
2023-02-12T12:52:22.344Z,103807.72
2023-02-12T12:55:14.112Z,103807.44
2023-02-12T12:57:56.798Z,103809.06
2023-02-12T13:00:45.215Z,103814.47
2023-02-12T13:03:52.895Z,103807.94
2023-02-12T13:06:50.369Z,103805.22
2023-02-12T13:09:47.685Z,103788.97
2023-02-12T13:12:43.300Z,103786.03
2023-02-12T13:15:29.067Z,103790.06
2023-02-12T13:18:10.900Z,103783.56
2023-02-12T13:20:48.839Z,103779.19
2023-02-12T13:23:22.537Z,103774.84
2023-02-12T13:26:03.736Z,103771.00
2023-02-12T13:28:37.538Z,103774.25
2023-02-12T13:31:31.851Z,103765.59
2023-02-12T13:34:02.576Z,103760.97
2023-02-12T13:36:30.953Z,103766.16
2023-02-12T13:39:06.298Z,103756.13
2023-02-12T13:41:36.598Z,103758.53
2023-02-12T13:44:17.593Z,103763.69
2023-02-12T13:46:57.133Z,103763.44
2023-02-12T13:49:39.266Z,103765.84
2023-02-12T13:52:15.447Z,103772.09
2023-02-12T13:54:58.562Z,103770.97
2023-02-12T13:57:26.998Z,103763.63
2023-02-12T13:59:58.295Z,103766.66
2023-02-12T14:02:44.858Z,103764.53
2023-02-12T14:05:29.312Z,103770.47
2023-02-12T14:08:02.113Z,103759.13
2023-02-12T14:10:35.086Z,103768.06
2023-02-12T14:13:34.139Z,103759.63
2023-02-12T14:16:38.008Z,103758.81
2023-02-12T14:19:53.979Z,103755.63
2023-02-12T14:23:03.143Z,103762.38
2023-02-12T14:25:45.155Z,103758.84
2023-02-12T14:28:26.960Z,103761.84
2023-02-12T14:31:45.363Z,103770.81
2023-02-12T14:34:41.132Z,103752.44
2023-02-12T14:37:35.956Z,103769.50
2023-02-12T14:40:51.924Z,103770.28
2023-02-12T14:43:54.822Z,103757.59
2023-02-12T14:46:48.581Z,103767.31
2023-02-12T14:49:27.689Z,103761.13
2023-02-12T14:52:01.828Z,103765.72
2023-02-12T14:54:35.560Z,103765.72
2023-02-12T14:57:10.162Z,103764.09
2023-02-12T14:59:42.908Z,103767.91
2023-02-12T15:02:21.514Z,103740.00
2023-02-12T15:04:52.273Z,103760.88
2023-02-12T15:07:37.346Z,103755.69
2023-02-12T15:10:11.123Z,103752.75
2023-02-12T15:12:44.332Z,103743.53
2023-02-12T15:15:22.870Z,103745.44
2023-02-12T15:17:59.732Z,103754.38
2023-02-12T15:20:36.715Z,103744.06
2023-02-12T15:23:37.270Z,103751.69
2023-02-12T15:26:07.785Z,103739.25
2023-02-12T15:28:38.380Z,103737.06
2023-02-12T15:31:10.762Z,103740.84
2023-02-12T15:33:46.869Z,103742.47
2023-02-12T15:36:21.705Z,103746.03
2023-02-12T15:38:53.546Z,103740.03
2023-02-12T15:41:37.539Z,103738.16
2023-02-12T15:44:21.309Z,103728.41
2023-02-12T15:47:14.545Z,103741.94
2023-02-12T15:49:45.137Z,103738.72
2023-02-12T15:52:24.802Z,103730.91
2023-02-12T15:54:53.712Z,103733.84
2023-02-12T15:57:25.281Z,103735.75
2023-02-12T15:59:56.671Z,103734.13
2023-02-12T16:02:30.863Z,103726.28
2023-02-12T16:05:03.673Z,103730.09
2023-02-12T16:07:38.097Z,103724.66
2023-02-12T16:10:08.381Z,103733.06
2023-02-12T16:12:38.943Z,103722.00
2023-02-12T16:15:09.006Z,103723.09
2023-02-12T16:17:38.699Z,103727.69
2023-02-12T16:20:27.165Z,103720.91
2023-02-12T16:22:56.400Z,103719.31
2023-02-12T16:25:28.274Z,103728.53
2023-02-12T16:28:01.523Z,103723.41
2023-02-12T16:30:33.545Z,103725.28
2023-02-12T16:33:03.075Z,103725.28
2023-02-12T16:35:35.556Z,103723.66
2023-02-12T16:38:31.605Z,103723.91
2023-02-12T16:41:23.537Z,103728.53
2023-02-12T16:44:22.550Z,103738.03
2023-02-12T16:46:53.737Z,103731.25
2023-02-12T16:49:25.621Z,103732.34
2023-02-12T16:52:19.683Z,103729.94
2023-02-12T16:54:47.991Z,103730.19
2023-02-12T16:57:16.240Z,103735.88
2023-02-12T16:59:45.322Z,103732.38
2023-02-12T17:02:16.205Z,103728.31
2023-02-12T17:04:44.902Z,103735.91
2023-02-12T17:07:23.265Z,103740.75
2023-02-12T17:09:52.012Z,103735.13
2023-02-12T17:12:20.555Z,103730.25
2023-02-12T17:14:49.101Z,103725.41
2023-02-12T17:17:17.697Z,103729.22
2023-02-12T17:19:46.168Z,103734.06
2023-02-12T17:22:23.703Z,103733.53
2023-02-12T17:24:53.294Z,103735.97
2023-02-12T17:27:22.239Z,103726.25
2023-02-12T17:29:50.605Z,103723.00
2023-02-12T17:32:19.029Z,103727.59
2023-02-12T17:34:48.819Z,103732.47
2023-02-12T17:37:22.229Z,103726.50
2023-02-12T17:39:50.484Z,103723.28
2023-02-12T17:42:19.049Z,103739.00
2023-02-12T17:44:47.337Z,103731.94
2023-02-12T17:47:15.661Z,103732.75
2023-02-12T17:49:44.158Z,103729.22
2023-02-12T17:52:12.631Z,103739.25
2023-02-12T17:54:45.532Z,103727.59
2023-02-12T17:57:14.885Z,103736.00
2023-02-12T17:59:43.410Z,103737.63
2023-02-12T18:02:12.752Z,103737.88
2023-02-12T18:04:43.819Z,103742.22
2023-02-12T18:07:11.957Z,103734.69
2023-02-12T18:09:41.682Z,103730.59
2023-02-12T18:12:10.375Z,103744.13
2023-02-12T18:14:38.873Z,103741.69
2023-02-12T18:17:07.274Z,103735.19
2023-02-12T18:19:38.657Z,103728.19
2023-02-12T18:22:06.972Z,103733.59
2023-02-12T18:24:35.569Z,103737.09
2023-02-12T18:27:05.516Z,103736.03
2023-02-12T18:29:34.129Z,103738.44
2023-02-12T18:32:02.712Z,103743.88
2023-02-12T18:34:31.252Z,103748.19
2023-02-12T18:36:59.603Z,103747.63
2023-02-12T18:39:29.163Z,103744.41
2023-02-12T18:41:57.561Z,103739.00
2023-02-12T18:44:27.361Z,103749.81
2023-02-12T18:46:57.349Z,103738.47
2023-02-12T18:49:25.848Z,103744.16
2023-02-12T18:51:54.750Z,103734.66
2023-02-12T18:54:23.074Z,103739.00
2023-02-12T18:56:54.243Z,103734.66
2023-02-12T18:59:24.244Z,103731.47
2023-02-12T19:01:55.620Z,103726.31
2023-02-12T19:04:27.844Z,103721.16
2023-02-12T19:06:56.505Z,103721.44
2023-02-12T19:09:27.560Z,103731.44
2023-02-12T19:11:57.253Z,103722.78
2023-02-12T19:14:27.840Z,103716.84
2023-02-12T19:16:57.682Z,103721.72
2023-02-12T19:19:26.926Z,103720.38
2023-02-12T19:21:56.310Z,103726.03
2023-02-12T19:24:24.901Z,103719.81
2023-02-12T19:26:55.652Z,103717.69
2023-02-12T19:29:24.100Z,103711.97
2023-02-12T19:31:52.509Z,103717.38
2023-02-12T19:34:24.889Z,103721.16
2023-02-12T19:36:53.536Z,103723.34
2023-02-12T19:39:24.870Z,103719.28
2023-02-12T19:41:56.197Z,103713.63
2023-02-12T19:44:26.446Z,103718.47
2023-02-12T19:46:54.955Z,103712.00
2023-02-12T19:49:27.320Z,103712.28
2023-02-12T19:51:56.205Z,103716.88
2023-02-12T19:54:26.163Z,103718.19
2023-02-12T19:56:55.248Z,103711.97
2023-02-12T19:59:26.014Z,103711.44
2023-02-12T20:01:56.169Z,103706.03
2023-02-12T20:04:26.577Z,103710.63
2023-02-12T20:06:54.974Z,103706.34
2023-02-12T20:09:24.029Z,103715.25
2023-02-12T20:11:53.414Z,103708.47
2023-02-12T20:14:22.698Z,103705.22
2023-02-12T20:16:52.202Z,103706.59
2023-02-12T20:19:23.806Z,103703.34
2023-02-12T20:21:55.829Z,103695.22
2023-02-12T20:24:26.108Z,103702.25
2023-02-12T20:26:55.422Z,103700.63
2023-02-12T20:29:23.854Z,103701.97
2023-02-12T20:31:52.944Z,103706.84
2023-02-12T20:34:22.365Z,103707.91
2023-02-12T20:36:53.988Z,103705.47
2023-02-12T20:39:23.101Z,103714.38
2023-02-12T20:41:51.671Z,103711.97
2023-02-12T20:44:22.512Z,103716.84
2023-02-12T20:46:56.416Z,103721.41
2023-02-12T20:49:26.084Z,103721.41
2023-02-12T20:51:55.978Z,103724.38
2023-02-12T20:54:24.507Z,103718.13
2023-02-12T20:56:54.352Z,103722.72
2023-02-12T20:59:22.701Z,103710.03
2023-02-12T21:01:51.218Z,103712.72
2023-02-12T21:04:20.959Z,103707.63
2023-02-12T21:06:49.609Z,103707.63
2023-02-12T21:09:19.926Z,103713.56
2023-02-12T21:11:49.073Z,103706.81
2023-02-12T21:14:23.664Z,103702.78
2023-02-12T21:16:54.018Z,103714.13
2023-02-12T21:19:23.537Z,103708.72
2023-02-12T21:21:52.205Z,103706.00
2023-02-12T21:24:24.852Z,103703.31
2023-02-12T21:26:55.189Z,103697.91
2023-02-12T21:29:26.624Z,103701.69
2023-02-12T21:31:55.605Z,103689.28
2023-02-12T21:34:25.304Z,103694.09
2023-02-12T21:36:56.863Z,103693.56
2023-02-12T21:39:28.943Z,103695.19
2023-02-12T21:42:00.034Z,103696.00
2023-02-12T21:44:28.633Z,103690.34
2023-02-12T21:46:58.656Z,103700.06
2023-02-12T21:49:28.241Z,103698.47
2023-02-12T21:51:59.273Z,103687.91
2023-02-12T21:54:29.667Z,103696.00
2023-02-12T21:56:58.926Z,103688.16
2023-02-12T21:59:29.510Z,103683.56
2023-02-12T22:01:59.230Z,103682.50
2023-02-12T22:04:28.465Z,103687.09
2023-02-12T22:06:58.147Z,103684.91
2023-02-12T22:09:28.033Z,103685.19
2023-02-12T22:11:56.414Z,103677.31
2023-02-12T22:14:24.838Z,103678.41
2023-02-12T22:16:53.182Z,103688.69
2023-02-12T22:19:21.583Z,103681.13
2023-02-12T22:21:52.528Z,103685.97
2023-02-12T22:24:21.088Z,103685.97
2023-02-12T22:26:50.896Z,103693.25
2023-02-12T22:29:19.458Z,103689.75
2023-02-12T22:31:48.679Z,103705.13
2023-02-12T22:34:19.596Z,103696.47
2023-02-12T22:36:49.240Z,103693.25
2023-02-12T22:39:19.316Z,103699.44
2023-02-12T22:41:48.167Z,103698.09
2023-02-12T22:44:20.808Z,103698.91
2023-02-12T22:46:50.211Z,103700.25
2023-02-12T22:49:18.902Z,103699.69
2023-02-12T22:51:47.555Z,103702.66
2023-02-12T22:54:18.413Z,103699.94
2023-02-12T22:56:50.851Z,103705.06
2023-02-12T22:59:20.598Z,103706.66
2023-02-12T23:01:48.963Z,103701.75
2023-02-12T23:04:18.940Z,103700.41
2023-02-12T23:06:48.106Z,103704.75
2023-02-12T23:09:19.029Z,103711.19
2023-02-12T23:11:48.285Z,103695.53
2023-02-12T23:14:16.924Z,103698.22
2023-02-12T23:16:46.829Z,103697.69
2023-02-12T23:19:16.579Z,103692.84
2023-02-12T23:21:44.912Z,103695.00
2023-02-12T23:24:15.278Z,103693.34
2023-02-12T23:26:44.009Z,103685.50
2023-02-12T23:29:12.604Z,103701.19
2023-02-12T23:31:41.185Z,103686.06
2023-02-12T23:34:11.230Z,103680.94
2023-02-12T23:36:39.776Z,103685.50
2023-02-12T23:39:09.572Z,103673.09
2023-02-12T23:41:38.041Z,103681.19
2023-02-12T23:44:07.206Z,103674.97
2023-02-12T23:46:35.571Z,103667.47
2023-02-12T23:49:04.219Z,103670.72
2023-02-12T23:51:34.570Z,103661.22
2023-02-12T23:54:03.273Z,103656.09
2023-02-12T23:56:31.721Z,103653.38
2023-02-12T23:59:00.051Z,103652.84
